Time;durP1;ratioP1;P1;durP2;ratioP2;P2;SDS_P1;SDS_P2;PMS_P1;PMS_P2;Temp;Humidity;BMP_temperature;BMP_pressure;BME280_temperature;BME280_humidity;BME280_pressure;Samples;Min_cycle;Max_cycle;Signal;HPM_P1;HPM_P2
2020/12/09 00:01:42;;;;;;;54.22;33.47;;;4.10;85.10;;;;;;5052320;28;20044;-66
2020/12/09 00:04:08;;;;;;;56.13;33.63;;;4.10;84.70;;;;;;5052032;28;20068;-65
2020/12/09 00:06:37;;;;;;;53.10;34.67;;;4.10;84.60;;;;;;5052100;28;20069;-66
2020/12/09 00:09:06;;;;;;;49.50;33.95;;;4.20;84.40;;;;;;5052155;28;20036;-64
2020/12/09 00:11:32;;;;;;;55.03;34.53;;;4.20;84.50;;;;;;5052213;28;20551;-63
2020/12/09 00:13:57;;;;;;;50.88;33.20;;;4.20;84.50;;;;;;5045287;28;20048;-65
2020/12/09 00:16:23;;;;;;;52.30;34.72;;;4.30;84.20;;;;;;5031019;28;20040;-64
2020/12/09 00:18:49;;;;;;;50.05;33.28;;;4.30;84.20;;;;;;5031170;28;20038;-65
2020/12/09 00:21:22;;;;;;;87.20;48.50;;;4.40;84.20;;;;;;5030544;28;20044;-65
2020/12/09 00:23:49;;;;;;;59.97;36.83;;;4.50;83.70;;;;;;5031708;28;20089;-65
2020/12/09 00:26:21;;;;;;;54.10;35.15;;;4.50;83.40;;;;;;5031803;28;20036;-65
2020/12/09 00:28:48;;;;;;;52.53;34.38;;;4.50;83.60;;;;;;5032099;28;20038;-63
2020/12/09 00:31:14;;;;;;;53.42;33.95;;;4.40;83.80;;;;;;5030596;28;20061;-65
2020/12/09 00:33:40;;;;;;;49.55;33.30;;;4.40;84.20;;;;;;5031425;28;20040;-65
2020/12/09 00:36:06;;;;;;;54.85;36.33;;;4.40;84.20;;;;;;5013726;28;20033;-65
2020/12/09 00:38:31;;;;;;;53.90;33.88;;;4.40;84.20;;;;;;5030415;28;20073;-66
2020/12/09 00:40:57;;;;;;;54.03;35.67;;;4.30;84.20;;;;;;5031852;28;20042;-65
2020/12/09 00:43:22;;;;;;;57.40;37.17;;;4.30;84.50;;;;;;5030272;28;20366;-65
2020/12/09 00:45:48;;;;;;;55.17;35.45;;;4.20;85.40;;;;;;5030157;28;20467;-65
2020/12/09 00:48:13;;;;;;;59.55;37.40;;;4.10;85.20;;;;;;5041119;28;20036;-65
2020/12/09 00:50:39;;;;;;;55.85;36.30;;;4.10;85.30;;;;;;5050134;28;20387;-65
2020/12/09 00:53:04;;;;;;;58.03;37.20;;;4.10;85.60;;;;;;5051440;28;20040;-65
2020/12/09 00:55:30;;;;;;;58.22;36.45;;;4.10;85.60;;;;;;5050975;28;20055;-65
2020/12/09 00:57:57;;;;;;;64.90;38.90;;;4.10;85.60;;;;;;5051199;28;20079;-65
2020/12/09 01:00:23;;;;;;;63.15;37.60;;;4.10;85.70;;;;;;5050410;28;20452;-65
2020/12/09 01:02:51;;;;;;;61.53;38.85;;;4.10;86.00;;;;;;5051667;28;20064;-65
2020/12/09 01:05:17;;;;;;;56.25;36.17;;;4.10;86.00;;;;;;5053254;28;20112;-65
2020/12/09 01:07:43;;;;;;;62.47;40.97;;;4.20;85.70;;;;;;5035956;28;20038;-65
2020/12/09 01:10:09;;;;;;;63.38;39.72;;;4.20;85.40;;;;;;5051747;28;20033;-64
2020/12/09 01:12:39;;;;;;;55.85;36.30;;;4.20;85.80;;;;;;5034041;28;20048;-64
2020/12/09 01:15:06;;;;;;;62.13;37.45;;;4.20;85.90;;;;;;5034371;28;20030;-64
2020/12/09 01:17:31;;;;;;;62.50;37.67;;;4.30;90.00;;;;;;5029424;28;20034;-63
2020/12/09 01:19:57;;;;;;;60.17;36.63;;;4.70;91.00;;;;;;5030272;28;20036;-66
2020/12/09 01:22:23;;;;;;;60.47;37.35;;;5.00;86.30;;;;;;5029794;28;20041;-67
2020/12/09 01:24:48;;;;;;;58.75;37.42;;;4.90;84.10;;;;;;5022149;28;20029;-67
2020/12/09 01:27:14;;;;;;;54.95;35.97;;;4.80;84.30;;;;;;5015372;28;20041;-65
2020/12/09 01:29:40;;;;;;;59.42;37.60;;;4.70;84.70;;;;;;5028347;28;20069;-66
2020/12/09 01:32:06;;;;;;;58.55;37.85;;;4.60;85.00;;;;;;5029953;28;20523;-66
2020/12/09 01:34:31;;;;;;;61.80;40.30;;;4.50;85.50;;;;;;5027859;28;20045;-67
2020/12/09 01:37:00;;;;;;;61.13;39.22;;;4.40;85.90;;;;;;5030067;28;20113;-66
2020/12/09 01:39:26;;;;;;;64.60;40.70;;;4.40;86.80;;;;;;5030146;28;20453;-68
2020/12/09 01:41:52;;;;;;;63.83;40.15;;;4.40;86.90;;;;;;5022578;28;20408;-67
2020/12/09 01:44:18;;;;;;;60.50;39.53;;;4.40;87.20;;;;;;5029448;28;20061;-68
2020/12/09 01:46:44;;;;;;;64.63;40.17;;;4.40;87.30;;;;;;5029910;28;20484;-67
2020/12/09 01:49:11;;;;;;;62.22;40.15;;;4.20;87.90;;;;;;5032407;28;20043;-67
2020/12/09 01:51:37;;;;;;;65.90;41.30;;;4.20;88.50;;;;;;5032493;28;20108;-65
2020/12/09 01:54:02;;;;;;;70.13;42.72;;;4.20;88.80;;;;;;5033043;28;20169;-66
2020/12/09 01:56:28;;;;;;;60.40;39.03;;;4.10;89.60;;;;;;5033273;28;20046;-65
2020/12/09 01:58:55;;;;;;;65.35;41.50;;;4.10;89.60;;;;;;5034961;28;20100;-66
2020/12/09 02:01:21;;;;;;;61.38;40.17;;;4.20;89.70;;;;;;5033904;28;20026;-68
2020/12/09 02:03:48;;;;;;;59.78;39.83;;;4.20;90.10;;;;;;5032392;28;20038;-65
2020/12/09 02:06:18;;;;;;;59.63;39.03;;;4.30;89.40;;;;;;5033160;28;20392;-66
2020/12/09 02:08:45;;;;;;;59.55;38.58;;;4.30;89.30;;;;;;5034905;28;20034;-66
2020/12/09 02:11:11;;;;;;;62.88;40.50;;;4.30;89.50;;;;;;5034465;28;20030;-67
2020/12/09 02:13:45;;;;;;;63.38;38.17;;;4.30;89.60;;;;;;5032944;28;20471;-67
2020/12/09 02:16:13;;;;;;;62.58;39.25;;;4.30;89.90;;;;;;5033249;28;20041;-68
2020/12/09 02:18:40;;;;;;;62.70;38.00;;;4.30;89.90;;;;;;5033980;28;20045;-67
2020/12/09 02:21:05;;;;;;;71.57;39.85;;;4.30;90.10;;;;;;5035716;28;20088;-65
2020/12/09 02:23:31;;;;;;;63.92;39.30;;;4.30;90.10;;;;;;5033820;28;20482;-67
2020/12/09 02:25:57;;;;;;;70.18;41.95;;;4.30;90.20;;;;;;5033456;28;20030;-67
2020/12/09 02:28:22;;;;;;;66.50;40.33;;;4.20;90.50;;;;;;5016938;28;20038;-66
2020/12/09 02:30:48;;;;;;;65.65;42.97;;;4.20;90.50;;;;;;5034307;28;20041;-67
2020/12/09 02:33:14;;;;;;;72.47;42.67;;;4.20;90.50;;;;;;5060958;23;20044;-64
2020/12/09 02:35:39;;;;;;;65.97;40.65;;;4.20;90.60;;;;;;5072439;28;20075;-63
2020/12/09 02:38:05;;;;;;;69.55;42.63;;;4.20;90.80;;;;;;5056107;28;20068;-63
2020/12/09 02:40:31;;;;;;;71.47;43.22;;;4.20;90.60;;;;;;5076282;28;20078;-62
2020/12/09 02:42:56;;;;;;;62.35;40.67;;;4.20;90.50;;;;;;5080845;28;20487;-63
2020/12/09 02:45:23;;;;;;;64.07;40.92;;;4.20;90.60;;;;;;5078170;28;20467;-63
2020/12/09 02:47:49;;;;;;;63.50;38.80;;;4.30;90.50;;;;;;5066516;28;20042;-63
2020/12/09 02:50:14;;;;;;;64.82;40.67;;;4.30;90.50;;;;;;5099793;28;20036;-63
2020/12/09 02:52:40;;;;;;;64.53;38.53;;;4.30;90.50;;;;;;5100308;28;20046;-64
2020/12/09 02:55:05;;;;;;;74.25;41.70;;;4.30;90.60;;;;;;5100487;28;20068;-63
2020/12/09 02:57:31;;;;;;;64.10;40.25;;;4.20;90.80;;;;;;5077570;28;20028;-63
2020/12/09 02:59:57;;;;;;;66.22;39.88;;;4.20;90.70;;;;;;5093866;28;20039;-64
2020/12/09 03:02:22;;;;;;;66.95;40.50;;;4.30;90.70;;;;;;5076243;28;20047;-65
2020/12/09 03:04:48;;;;;;;66.65;41.05;;;4.30;90.90;;;;;;5076011;28;20044;-64
2020/12/09 03:07:13;;;;;;;68.18;40.75;;;4.30;90.90;;;;;;5094000;28;20036;-64
2020/12/09 03:09:40;;;;;;;64.57;39.30;;;4.30;90.80;;;;;;5094557;28;20032;-64
2020/12/09 03:12:05;;;;;;;66.95;41.17;;;4.40;90.80;;;;;;5075791;28;20028;-65
2020/12/09 03:14:31;;;;;;;66.78;39.33;;;4.40;90.80;;;;;;5082206;28;20494;-63
2020/12/09 03:16:56;;;;;;;64.35;40.30;;;4.40;90.70;;;;;;5073662;28;20040;-63
2020/12/09 03:19:22;;;;;;;60.72;38.45;;;4.50;90.60;;;;;;5074147;28;20024;-63
2020/12/09 03:21:47;;;;;;;60.03;38.28;;;4.50;90.70;;;;;;5074918;28;20032;-64
2020/12/09 03:24:13;;;;;;;62.92;40.05;;;4.50;90.70;;;;;;5075083;28;20059;-63
2020/12/09 03:26:38;;;;;;;64.60;39.58;;;4.50;90.50;;;;;;5073861;28;20442;-63
2020/12/09 03:29:04;;;;;;;65.93;39.78;;;4.60;90.40;;;;;;5073577;28;20039;-63
2020/12/09 03:31:30;;;;;;;66.78;37.97;;;4.60;90.50;;;;;;5072453;28;20090;-64
2020/12/09 03:33:56;;;;;;;64.50;38.60;;;4.60;90.60;;;;;;5073468;28;20040;-64
2020/12/09 03:36:21;;;;;;;61.15;39.40;;;4.60;90.30;;;;;;5073030;28;20101;-65
2020/12/09 03:38:47;;;;;;;62.65;39.72;;;4.70;90.30;;;;;;5072612;28;20064;-65
2020/12/09 03:41:13;;;;;;;54.47;35.22;;;4.70;90.30;;;;;;5055206;28;20040;-65
2020/12/09 03:43:39;;;;;;;57.78;36.53;;;4.80;90.50;;;;;;5072974;28;20183;-64
2020/12/09 03:46:05;;;;;;;60.83;38.05;;;4.80;90.10;;;;;;5072655;28;20040;-64
2020/12/09 03:48:30;;;;;;;60.28;38.47;;;5.00;89.70;;;;;;5084395;28;20502;-64
2020/12/09 03:50:56;;;;;;;60.20;37.60;;;5.00;89.20;;;;;;5092180;28;20016;-63
2020/12/09 03:53:21;;;;;;;57.20;36.88;;;5.00;89.30;;;;;;5092871;28;20043;-65
2020/12/09 03:55:48;;;;;;;64.03;38.53;;;4.90;89.60;;;;;;5075048;28;20351;-61
2020/12/09 03:58:14;;;;;;;60.67;38.17;;;4.80;89.70;;;;;;5074493;28;20051;-62
2020/12/09 04:00:40;;;;;;;62.58;39.17;;;4.80;90.00;;;;;;5093171;28;20024;-61
2020/12/09 04:03:05;;;;;;;63.38;39.40;;;4.80;90.10;;;;;;5092959;28;20405;-61
2020/12/09 04:05:31;;;;;;;66.43;39.08;;;4.80;90.00;;;;;;5092641;28;20036;-62
2020/12/09 04:07:56;;;;;;;58.55;38.28;;;4.90;89.90;;;;;;5093052;28;20036;-62
2020/12/09 04:10:22;;;;;;;62.20;38.85;;;4.90;89.90;;;;;;5092761;28;20039;-62
2020/12/09 04:12:47;;;;;;;66.18;39.42;;;5.00;89.50;;;;;;5092664;28;20051;-64
2020/12/09 04:15:13;;;;;;;60.70;39.00;;;5.00;89.40;;;;;;5075547;28;20051;-63
2020/12/09 04:17:38;;;;;;;59.25;38.10;;;5.00;89.30;;;;;;5072600;28;20040;-64
2020/12/09 04:20:05;;;;;;;69.85;41.00;;;4.90;89.80;;;;;;5072913;28;20091;-64
2020/12/09 04:22:30;;;;;;;62.97;38.95;;;5.00;89.40;;;;;;5072462;28;20086;-64
2020/12/09 04:24:56;;;;;;;64.53;41.25;;;5.00;89.30;;;;;;5072106;28;20028;-61
2020/12/09 04:27:21;;;;;;;66.57;40.67;;;5.00;89.10;;;;;;5072399;28;20036;-62
2020/12/09 04:29:47;;;;;;;64.25;39.90;;;5.00;89.00;;;;;;5072152;28;20483;-62
2020/12/09 04:32:13;;;;;;;65.78;39.78;;;5.00;89.10;;;;;;5054317;28;20039;-62
2020/12/09 04:34:38;;;;;;;64.32;40.65;;;4.90;89.40;;;;;;5072161;28;20044;-62
2020/12/09 04:37:04;;;;;;;59.80;40.15;;;5.00;89.70;;;;;;5072155;28;20120;-60
2020/12/09 04:39:30;;;;;;;63.40;40.88;;;5.00;89.80;;;;;;5072368;28;20052;-59
2020/12/09 04:41:56;;;;;;;66.32;42.53;;;5.00;89.50;;;;;;5076536;28;20048;-62
2020/12/09 04:44:23;;;;;;;63.22;42.97;;;5.00;89.70;;;;;;5083125;28;20067;-61
2020/12/09 04:46:51;;;;;;;69.13;42.50;;;5.00;89.20;;;;;;5084899;28;20104;-61
2020/12/09 04:49:23;;;;;;;68.43;41.30;;;5.00;89.20;;;;;;5100364;28;20091;-62
2020/12/09 04:52:31;;;;;;;69.47;42.78;;;5.10;88.80;;;;;;5102418;28;20052;-63
2020/12/09 04:55:06;;;;;;;65.75;42.88;;;5.00;88.70;;;;;;5098233;28;20031;-62
2020/12/09 04:57:37;;;;;;;66.88;42.65;;;5.00;88.90;;;;;;5092522;28;20115;-64
2020/12/09 05:00:08;;;;;;;63.72;41.17;;;5.00;89.30;;;;;;5092689;28;20063;-63
2020/12/09 05:02:40;;;;;;;62.33;38.97;;;5.00;89.20;;;;;;5092947;28;20021;-62
2020/12/09 05:05:06;;;;;;;67.43;42.08;;;5.10;88.80;;;;;;5092193;28;20390;-63
2020/12/09 05:07:36;;;;;;;66.03;42.55;;;5.10;88.10;;;;;;5092244;28;20055;-63
2020/12/09 05:10:06;;;;;;;63.55;40.88;;;5.10;87.70;;;;;;5074076;28;20036;-63
2020/12/09 05:12:43;;;;;;;66.75;41.03;;;5.10;87.80;;;;;;5092494;28;20035;-62
2020/12/09 05:15:17;;;;;;;62.67;39.25;;;5.10;87.70;;;;;;5074944;28;20032;-60
2020/12/09 05:17:51;;;;;;;66.78;41.00;;;5.10;88.00;;;;;;5053589;28;20056;-61
2020/12/09 05:20:40;;;;;;;64.90;40.72;;;5.00;88.40;;;;;;5071775;28;20054;-61
2020/12/09 05:23:08;;;;;;;65.40;41.60;;;5.00;88.50;;;;;;5072104;28;20035;-61
2020/12/09 05:25:35;;;;;;;66.97;41.67;;;5.00;88.40;;;;;;5075730;28;20036;-62
2020/12/09 05:28:01;;;;;;;62.38;40.78;;;5.10;87.90;;;;;;5075804;28;20386;-60
2020/12/09 05:30:47;;;;;;;65.80;41.35;;;5.10;87.50;;;;;;5075926;28;20042;-60
2020/12/09 05:33:15;;;;;;;68.97;41.10;;;5.10;87.70;;;;;;5075675;28;20482;-61
2020/12/09 05:35:42;;;;;;;67.00;42.17;;;5.00;87.70;;;;;;5075792;28;20036;-62
2020/12/09 05:38:11;;;;;;;61.20;39.70;;;5.00;88.20;;;;;;5074273;28;20036;-61
2020/12/09 05:40:42;;;;;;;66.72;40.75;;;5.00;88.20;;;;;;5076023;28;20398;-60
2020/12/09 05:43:08;;;;;;;70.65;42.92;;;5.10;87.90;;;;;;5061024;28;20040;-60
2020/12/09 05:45:35;;;;;;;72.97;44.13;;;5.10;87.60;;;;;;5076199;28;20100;-60
2020/12/09 05:48:20;;;;;;;68.18;43.05;;;5.10;87.80;;;;;;5084418;28;20498;-62
2020/12/09 05:50:59;;;;;;;69.07;41.58;;;5.10;87.60;;;;;;5082529;28;20076;-61
2020/12/09 05:53:28;;;;;;;65.20;43.03;;;5.00;87.90;;;;;;5037904;28;20061;-61
2020/12/09 05:56:10;;;;;;;66.35;41.53;;;5.00;88.10;;;;;;5067993;28;20075;-61
2020/12/09 05:58:42;;;;;;;68.75;42.30;;;5.10;87.50;;;;;;5081609;28;20035;-62
2020/12/09 06:01:22;;;;;;;73.32;45.83;;;5.00;87.70;;;;;;5069336;28;20056;-63
2020/12/09 06:03:52;;;;;;;75.00;44.78;;;4.70;88.60;;;;;;5082885;28;20029;-61
2020/12/09 06:06:25;;;;;;;71.43;43.63;;;4.70;89.20;;;;;;5061824;28;20041;-63
2020/12/09 06:08:55;;;;;;;78.90;43.20;;;4.60;89.50;;;;;;5055166;28;20044;-63
2020/12/09 06:11:26;;;;;;;70.03;42.22;;;4.60;89.30;;;;;;5038991;28;20037;-60
2020/12/09 06:13:52;;;;;;;69.70;43.03;;;4.70;88.90;;;;;;5060766;28;20421;-61
2020/12/09 06:16:18;;;;;;;70.50;44.83;;;4.70;89.20;;;;;;5075081;28;20058;-63
2020/12/09 06:18:49;;;;;;;78.60;45.53;;;4.70;89.10;;;;;;5076927;28;20044;-63
2020/12/09 06:21:15;;;;;;;72.47;45.13;;;4.70;89.30;;;;;;5078682;28;20044;-63
2020/12/09 06:23:42;;;;;;;73.72;46.13;;;4.70;88.90;;;;;;5079365;28;20037;-63
2020/12/09 06:26:07;;;;;;;69.88;42.85;;;4.70;89.50;;;;;;5059738;28;20029;-61
2020/12/09 06:28:36;;;;;;;70.72;44.40;;;4.70;89.20;;;;;;5075931;28;20027;-59
2020/12/09 06:31:19;;;;;;;71.30;43.03;;;4.70;89.10;;;;;;5067315;28;20087;-61
2020/12/09 06:33:46;;;;;;;83.95;50.88;;;4.70;89.10;;;;;;5054273;28;20487;-62
2020/12/09 06:36:29;;;;;;;71.30;44.88;;;4.70;88.80;;;;;;5054706;28;20108;-63
2020/12/09 06:39:16;;;;;;;72.30;44.97;;;4.80;88.90;;;;;;5054569;28;20476;-61
2020/12/09 06:42:02;;;;;;;69.85;42.47;;;4.80;88.70;;;;;;5055627;28;20037;-63
2020/12/09 06:44:31;;;;;;;71.60;42.85;;;4.70;88.30;;;;;;5036728;28;20033;-60
2020/12/09 06:46:59;;;;;;;72.25;44.47;;;4.70;89.00;;;;;;5068558;28;20371;-62
2020/12/09 06:49:38;;;;;;;77.57;44.53;;;4.70;88.80;;;;;;5094361;28;20039;-62
2020/12/09 06:52:10;;;;;;;75.15;45.80;;;4.60;89.90;;;;;;5078896;28;20040;-63
2020/12/09 06:54:36;;;;;;;75.13;45.00;;;4.70;88.60;;;;;;5074233;28;20475;-61
2020/12/09 06:57:19;;;;;;;72.78;44.13;;;4.80;88.60;;;;;;5072405;28;20037;-60
2020/12/09 06:59:47;;;;;;;78.75;47.60;;;4.80;88.70;;;;;;5056485;28;20036;-59
2020/12/09 07:02:29;;;;;;;75.40;44.50;;;4.70;89.00;;;;;;5059311;28;20484;-61
2020/12/09 07:04:58;;;;;;;74.85;43.92;;;4.70;89.20;;;;;;5054116;28;20047;-62
2020/12/09 07:07:43;;;;;;;77.45;45.30;;;4.60;89.10;;;;;;5069645;28;20048;-61
2020/12/09 07:10:10;;;;;;;74.95;45.78;;;4.60;89.30;;;;;;5074428;28;20082;-61
2020/12/09 07:12:36;;;;;;;82.82;45.45;;;4.70;89.20;;;;;;5057202;28;20506;-62
2020/12/09 07:15:01;;;;;;;81.35;47.50;;;4.70;88.70;;;;;;5069261;28;20036;-62
2020/12/09 07:17:28;;;;;;;76.18;44.85;;;4.70;89.10;;;;;;5055224;28;20037;-60
2020/12/09 07:19:58;;;;;;;78.20;46.63;;;4.70;89.40;;;;;;5073899;28;20497;-60
2020/12/09 07:22:26;;;;;;;83.47;49.15;;;4.70;89.20;;;;;;5059431;28;20029;-60
2020/12/09 07:24:52;;;;;;;84.18;47.53;;;4.70;89.50;;;;;;5053527;28;20391;-59
2020/12/09 07:27:20;;;;;;;82.10;48.35;;;4.70;89.00;;;;;;5065784;28;20044;-59
2020/12/09 07:29:48;;;;;;;83.25;49.10;;;4.70;88.90;;;;;;5073457;28;20036;-62
2020/12/09 07:32:18;;;;;;;80.32;48.15;;;4.70;89.30;;;;;;5055610;28;20082;-62
2020/12/09 07:34:50;;;;;;;76.18;46.60;;;4.70;89.40;;;;;;5053237;28;20093;-63
2020/12/09 07:37:20;;;;;;;78.32;46.80;;;4.80;89.20;;;;;;5070705;28;20032;-60
2020/12/09 07:39:51;;;;;;;79.47;46.50;;;4.80;89.20;;;;;;5055836;28;20036;-62
2020/12/09 07:42:20;;;;;;;89.22;49.78;;;4.80;89.00;;;;;;5055892;28;20381;-62
2020/12/09 07:44:46;;;;;;;86.85;52.80;;;4.80;89.20;;;;;;5053373;28;20396;-63
2020/12/09 07:47:12;;;;;;;85.93;50.47;;;4.70;89.40;;;;;;5051144;28;20055;-63
2020/12/09 07:49:49;;;;;;;79.50;47.00;;;4.70;90.00;;;;;;5093581;28;20483;-62
2020/12/09 07:52:26;;;;;;;74.68;46.28;;;4.70;89.90;;;;;;5060687;28;20044;-60
2020/12/09 07:54:54;;;;;;;79.30;47.50;;;4.80;89.80;;;;;;5053097;28;20063;-63
2020/12/09 07:57:22;;;;;;;78.60;46.17;;;4.80;89.60;;;;;;5068578;28;20082;-63
2020/12/09 07:59:48;;;;;;;81.15;48.97;;;4.80;89.60;;;;;;5073160;28;20024;-62
2020/12/09 08:02:22;;;;;;;75.57;46.80;;;4.90;89.70;;;;;;5055036;28;20488;-63
2020/12/09 08:04:48;;;;;;;72.57;44.57;;;4.90;89.80;;;;;;5035804;28;20047;-59
2020/12/09 08:07:15;;;;;;;76.68;46.03;;;4.90;90.00;;;;;;5069885;28;20089;-62
2020/12/09 08:09:41;;;;;;;72.07;45.70;;;4.90;89.80;;;;;;5073141;28;20043;-62
2020/12/09 08:12:07;;;;;;;76.72;45.70;;;4.90;89.80;;;;;;5056591;28;20123;-63
2020/12/09 08:14:32;;;;;;;70.30;44.30;;;4.90;89.70;;;;;;5045662;28;20083;-64
2020/12/09 08:16:58;;;;;;;74.88;43.88;;;4.90;89.80;;;;;;5056511;28;20037;-63
2020/12/09 08:19:24;;;;;;;69.57;42.75;;;5.00;89.70;;;;;;5052293;28;20029;-63
2020/12/09 08:22:04;;;;;;;64.85;41.55;;;5.00;89.50;;;;;;5053027;28;20143;-63
2020/12/09 08:24:30;;;;;;;68.10;41.55;;;5.10;88.80;;;;;;5034459;28;20035;-64
2020/12/09 08:26:55;;;;;;;70.53;43.47;;;5.10;88.70;;;;;;5053413;28;20053;-63
2020/12/09 08:29:21;;;;;;;67.82;42.97;;;5.10;88.90;;;;;;5052714;28;20045;-64
2020/12/09 08:32:00;;;;;;;69.82;42.58;;;5.00;89.00;;;;;;5045631;28;20044;-62
2020/12/09 08:34:26;;;;;;;64.15;40.08;;;5.00;89.40;;;;;;5072601;28;20491;-62
2020/12/09 08:36:51;;;;;;;72.30;43.88;;;5.10;89.50;;;;;;5061412;28;20072;-62
2020/12/09 08:39:17;;;;;;;71.35;43.05;;;5.20;88.80;;;;;;5053003;28;20033;-62
2020/12/09 08:41:46;;;;;;;74.00;46.38;;;5.30;88.20;;;;;;5054905;28;20503;-62
2020/12/09 08:44:11;;;;;;;73.95;43.58;;;5.20;88.30;;;;;;5053690;28;20384;-61
2020/12/09 08:46:37;;;;;;;72.53;46.00;;;5.20;88.20;;;;;;5061456;28;20043;-63
2020/12/09 08:49:03;;;;;;;76.97;46.13;;;5.10;88.60;;;;;;5089867;28;20060;-61
2020/12/09 08:51:31;;;;;;;77.00;45.88;;;5.40;88.20;;;;;;5085622;28;20061;-63
2020/12/09 08:53:59;;;;;;;77.10;45.40;;;5.40;87.60;;;;;;5073027;28;20058;-63
2020/12/09 08:56:29;;;;;;;73.40;45.33;;;5.30;87.90;;;;;;5071615;28;20032;-62
2020/12/09 08:58:56;;;;;;;77.65;46.60;;;5.10;89.00;;;;;;5071696;28;20021;-63
2020/12/09 09:01:22;;;;;;;74.70;45.08;;;5.00;89.20;;;;;;5063656;28;20037;-61
2020/12/09 09:03:51;;;;;;;76.32;46.08;;;5.10;88.50;;;;;;5069845;28;20067;-62
2020/12/09 09:06:17;;;;;;;72.80;43.83;;;5.20;88.10;;;;;;5065331;28;20029;-62
2020/12/09 09:08:43;;;;;;;74.47;44.72;;;5.20;88.30;;;;;;5051324;28;20638;-61
2020/12/09 09:11:08;;;;;;;70.13;45.00;;;5.30;88.30;;;;;;5054556;28;20033;-64
2020/12/09 09:13:34;;;;;;;71.40;44.72;;;5.30;88.10;;;;;;5055986;28;20081;-63
2020/12/09 09:16:09;;;;;;;74.38;45.42;;;5.30;87.80;;;;;;5054368;28;20075;-63
2020/12/09 09:18:36;;;;;;;71.35;43.05;;;5.30;88.20;;;;;;5053951;28;20072;-63
2020/12/09 09:21:02;;;;;;;71.25;44.13;;;5.30;88.50;;;;;;5061046;28;20033;-62
2020/12/09 09:23:27;;;;;;;74.13;45.90;;;5.30;88.10;;;;;;5052818;28;20682;-61
2020/12/09 09:25:53;;;;;;;72.80;46.55;;;5.40;87.50;;;;;;5052138;28;20033;-63
2020/12/09 09:28:19;;;;;;;81.85;48.67;;;5.40;87.90;;;;;;5069001;28;20060;-63
2020/12/09 09:30:45;;;;;;;84.25;49.08;;;5.20;88.00;;;;;;5058196;28;20035;-64
2020/12/09 09:33:12;;;;;;;82.13;48.90;;;4.80;90.10;;;;;;5038112;28;20381;-62
2020/12/09 09:35:37;;;;;;;84.47;49.33;;;4.80;90.50;;;;;;5052149;28;20094;-63
2020/12/09 09:38:03;;;;;;;76.95;45.13;;;5.00;89.90;;;;;;5054563;28;20041;-63
2020/12/09 09:40:28;;;;;;;82.68;47.13;;;5.00;89.80;;;;;;5064267;28;20037;-64
2020/12/09 09:42:54;;;;;;;77.18;46.28;;;5.20;89.40;;;;;;5058895;28;20028;-63
2020/12/09 09:45:21;;;;;;;79.10;47.92;;;5.30;88.80;;;;;;5053645;28;20051;-63
2020/12/09 09:47:47;;;;;;;85.43;49.08;;;5.30;88.70;;;;;;5078573;28;20032;-61
2020/12/09 09:50:13;;;;;;;84.18;50.22;;;5.30;88.90;;;;;;5087836;28;20128;-61
2020/12/09 09:52:39;;;;;;;82.57;48.42;;;5.30;88.20;;;;;;5074226;28;20064;-62
2020/12/09 09:55:04;;;;;;;92.07;52.53;;;5.20;88.50;;;;;;5073964;28;20064;-63
2020/12/09 09:57:30;;;;;;;93.47;51.88;;;5.20;88.30;;;;;;5062010;28;20061;-64
2020/12/09 09:59:56;;;;;;;86.30;49.97;;;5.10;88.80;;;;;;5045046;28;20403;-62
2020/12/09 10:02:22;;;;;;;89.25;50.60;;;5.20;88.20;;;;;;5045235;28;20033;-64
2020/12/09 10:04:47;;;;;;;85.82;49.85;;;5.30;87.80;;;;;;5060051;28;20499;-64
2020/12/09 10:07:13;;;;;;;90.70;52.38;;;5.30;87.70;;;;;;5035042;28;20120;-64
2020/12/09 10:09:38;;;;;;;92.80;50.67;;;5.30;87.80;;;;;;5055027;28;20033;-61
2020/12/09 10:12:04;;;;;;;87.55;49.28;;;5.30;87.80;;;;;;5037979;28;20087;-62
2020/12/09 10:14:29;;;;;;;97.30;52.42;;;5.30;87.80;;;;;;5065812;28;20025;-61
2020/12/09 10:16:58;;;;;;;90.13;51.30;;;5.30;87.70;;;;;;5055927;28;20032;-63
2020/12/09 10:19:24;;;;;;;91.50;53.30;;;5.40;87.10;;;;;;5075449;28;20027;-63
2020/12/09 10:21:50;;;;;;;91.45;52.28;;;5.50;87.00;;;;;;5057179;28;20041;-63
2020/12/09 10:24:15;;;;;;;99.78;55.03;;;5.30;87.60;;;;;;5055163;28;20476;-64
2020/12/09 10:26:42;;;;;;;91.43;52.10;;;5.20;88.90;;;;;;5055718;28;20036;-64
2020/12/09 10:29:09;;;;;;;95.78;52.90;;;5.20;89.50;;;;;;5037249;28;20029;-64
2020/12/09 10:31:38;;;;;;;101.65;54.20;;;5.30;89.70;;;;;;5070512;28;20157;-64
2020/12/09 10:34:05;;;;;;;92.95;52.00;;;5.50;88.20;;;;;;5074281;28;20391;-63
2020/12/09 10:36:31;;;;;;;92.28;52.38;;;5.60;87.50;;;;;;5074505;28;20441;-61
2020/12/09 10:38:57;;;;;;;86.30;51.35;;;5.60;87.40;;;;;;5074552;28;20032;-63
2020/12/09 10:41:22;;;;;;;84.03;49.13;;;5.60;87.50;;;;;;5061920;28;20025;-63
2020/12/09 10:43:52;;;;;;;88.72;52.45;;;5.60;87.60;;;;;;5056157;28;20427;-61
2020/12/09 10:46:28;;;;;;;85.00;50.92;;;5.60;87.40;;;;;;5055001;28;20040;-64
2020/12/09 10:48:54;;;;;;;88.97;51.38;;;5.70;87.10;;;;;;5085340;28;20024;-63
2020/12/09 10:51:19;;;;;;;90.15;49.67;;;5.70;87.20;;;;;;5084618;28;20052;-62
2020/12/09 10:53:45;;;;;;;86.88;51.15;;;5.80;86.70;;;;;;5055504;28;20048;-60
2020/12/09 10:56:11;;;;;;;80.53;48.58;;;5.80;86.30;;;;;;5071596;28;20040;-64
2020/12/09 10:58:37;;;;;;;87.30;52.00;;;5.70;86.30;;;;;;5073518;28;20123;-62
2020/12/09 11:01:03;;;;;;;89.53;51.83;;;5.60;86.60;;;;;;5070479;28;20063;-61
2020/12/09 11:03:29;;;;;;;87.88;51.40;;;5.60;86.80;;;;;;5066161;28;20091;-64
2020/12/09 11:05:55;;;;;;;95.78;52.20;;;5.60;86.80;;;;;;5071237;28;20391;-63
2020/12/09 11:08:21;;;;;;;98.07;54.53;;;5.60;87.20;;;;;;5073062;28;20403;-63
2020/12/09 11:10:48;;;;;;;98.18;54.85;;;5.40;88.20;;;;;;5073020;28;20025;-64
2020/12/09 11:13:14;;;;;;;99.25;55.38;;;5.40;87.90;;;;;;5056581;28;20593;-64
2020/12/09 11:15:40;;;;;;;92.97;55.22;;;5.40;88.70;;;;;;5075100;28;20119;-64
2020/12/09 11:18:06;;;;;;;93.57;53.40;;;5.40;88.50;;;;;;5075264;28;20044;-64
2020/12/09 11:20:33;;;;;;;93.57;51.65;;;5.50;88.20;;;;;;5076795;28;20032;-64
2020/12/09 11:22:59;;;;;;;99.53;52.60;;;5.60;87.90;;;;;;5059876;28;20064;-63
2020/12/09 11:25:24;;;;;;;95.82;50.75;;;5.60;87.70;;;;;;5055177;28;20379;-63
2020/12/09 11:27:50;;;;;;;97.38;53.22;;;5.60;87.90;;;;;;5059231;28;20032;-66
2020/12/09 11:30:16;;;;;;;92.68;53.15;;;5.60;87.70;;;;;;5073773;28;20127;-63
2020/12/09 11:32:42;;;;;;;97.38;52.95;;;5.60;87.70;;;;;;5062168;28;20044;-62
2020/12/09 11:35:07;;;;;;;93.10;51.42;;;5.60;87.90;;;;;;5054650;28;20124;-61
2020/12/09 11:37:33;;;;;;;93.60;54.65;;;5.60;87.80;;;;;;5073496;28;20060;-63
2020/12/09 11:39:59;;;;;;;93.30;51.58;;;5.60;88.00;;;;;;5085935;28;20526;-63
2020/12/09 11:42:25;;;;;;;94.35;53.75;;;5.80;87.70;;;;;;5064128;28;20032;-63
2020/12/09 11:44:51;;;;;;;99.45;54.65;;;5.80;87.80;;;;;;5077166;28;20040;-62
2020/12/09 11:47:17;;;;;;;92.40;51.60;;;5.70;88.10;;;;;;5070906;28;20045;-63
2020/12/09 11:49:42;;;;;;;88.50;52.95;;;5.70;87.80;;;;;;5076534;28;20035;-63
2020/12/09 11:52:08;;;;;;;96.20;53.53;;;5.80;87.70;;;;;;5088508;28;20363;-62
2020/12/09 11:54:33;;;;;;;90.78;54.65;;;5.70;87.90;;;;;;5071761;28;20055;-62
2020/12/09 11:56:59;;;;;;;91.40;52.65;;;5.70;87.70;;;;;;5076683;28;20040;-62
2020/12/09 11:59:25;;;;;;;94.20;53.10;;;5.80;87.60;;;;;;5064335;28;20037;-62
2020/12/09 12:01:51;;;;;;;93.50;53.58;;;5.70;87.40;;;;;;5037613;28;20040;-64
2020/12/09 12:04:17;;;;;;;94.88;53.28;;;5.70;88.30;;;;;;5055113;28;20024;-62
2020/12/09 12:06:42;;;;;;;95.93;55.00;;;5.70;88.30;;;;;;5072528;28;20093;-62
2020/12/09 12:09:08;;;;;;;91.28;53.42;;;5.70;89.30;;;;;;5073001;28;20090;-64
2020/12/09 12:11:34;;;;;;;89.13;51.70;;;5.80;88.60;;;;;;5072949;28;20036;-63
2020/12/09 12:13:59;;;;;;;93.63;52.53;;;6.00;88.10;;;;;;5068652;28;20040;-59
2020/12/09 12:16:25;;;;;;;92.05;51.95;;;6.10;87.30;;;;;;5060805;28;20113;-61
2020/12/09 12:18:52;;;;;;;105.00;57.13;;;6.00;86.80;;;;;;5063227;28;20036;-62
2020/12/09 12:21:21;;;;;;;101.55;56.80;;;5.80;87.50;;;;;;5061868;28;20028;-64
2020/12/09 12:23:47;;;;;;;92.38;52.33;;;5.70;88.70;;;;;;5060556;28;20024;-64
2020/12/09 12:26:17;;;;;;;100.55;54.55;;;5.80;88.30;;;;;;5062028;28;20025;-64
2020/12/09 12:28:43;;;;;;;101.38;55.80;;;5.70;88.00;;;;;;5061488;28;20091;-64
2020/12/09 12:31:11;;;;;;;90.28;53.80;;;5.70;88.20;;;;;;5043310;28;20044;-65
2020/12/09 12:33:37;;;;;;;102.25;57.95;;;5.80;88.00;;;;;;5061519;28;20491;-62
2020/12/09 12:36:03;;;;;;;95.30;52.42;;;5.80;88.10;;;;;;5059823;28;20045;-63
2020/12/09 12:38:28;;;;;;;96.72;54.58;;;5.70;88.40;;;;;;5060192;28;20036;-63